Flight Track Log - Related Links

Times and Time Zones

All times are in EDT time to prevent confusion due to time zone crossing. See the BAW347 flight status page for this flight to view local times or setup timezone preferences in your user account.

Time Position Orientation Groundspeed Altitude Reporting Facility
EDT Latitude Longitude Course Direction KTS MPH feet Rate Location/Type
Wed 07:49:13 AM 43.6568 7.2163 45° Northeast 155 178 300  Level FlightAware ADS-B
Wed 07:49:34 AM 43.6680 7.2360 82° East 152 175 1,100 1,630 Climbing FlightAware ADS-B
Wed 07:50:34 AM 43.6350 7.2876 138° Southeast 225 259 2,500 1,800 Climbing FlightAware ADS-B
Wed 07:50:54 AM 43.6199 7.3089 144° Southeast 230 265 3,500 3,153 Climbing FlightAware ADS-B
Wed 07:51:33 AM 43.5830 7.3092 224° Southwest 241 277 5,600 3,153 Climbing FlightAware ADS-B
Wed 07:51:53 AM 43.5694 7.2792 262° West 249 287 6,600 2,780 Climbing FlightAware ADS-B
Wed 07:52:14 AM 43.5732 7.2480 299° West 261 300 7,500 2,195 Climbing FlightAware ADS-B
Wed 07:52:34 AM 43.5890 7.2217 317° Northwest 279 321 8,100 2,850 Climbing FlightAware ADS-B
Wed 07:52:54 AM 43.6060 7.2001 317° Northwest 272 313 9,400 3,700 Climbing FlightAware ADS-B
Wed 07:53:34 AM 43.6427 7.1521 316° Northwest 266 306 11,800 3,259 Climbing FlightAware ADS-B
Wed 07:54:15 AM 43.6791 7.1032 316° Northwest 271 312 13,800 2,617 Climbing FlightAware ADS-B
Wed 07:55:08 AM 43.7201 7.0537 328° Northwest 290 334 15,900 1,817 Climbing FlightAware ADS-B
Wed 08:01:21 AM 44.1713 6.6523 327° Northwest 369 425 26,700 1,623 Climbing FlightAware ADS-B
Wed 08:02:02 AM 44.2387 6.5917 327° Northwest 390 449 27,100 571 Climbing FlightAware ADS-B
Wed 08:02:45 AM 44.3061 6.5307 327° Northwest 417 480 27,500 720 Climbing FlightAware ADS-B
Wed 08:03:17 AM 44.3576 6.4845 327° Northwest 437 503 28,000 1,247 Climbing FlightAware ADS-B
Wed 08:04:02 AM 44.4357 6.4140 327° Northwest 438 504 29,100 1,241 Climbing FlightAware ADS-B
Wed 08:04:44 AM 44.5076 6.3486 327° Northwest 447 514 29,800 1,084 Climbing FlightAware ADS-B
Wed 08:05:25 AM 44.5736 6.2880 327° Northwest 452 520 30,600 1,333 Climbing FlightAware ADS-B
Wed 08:06:05 AM 44.6473 6.2214 327° Northwest 452 520 31,600 1,500 Climbing FlightAware ADS-B
Wed 08:06:41 AM 44.7122 6.1625 327° Northwest 453 521 32,500 1,350 Climbing FlightAware ADS-B
Wed 08:07:25 AM 44.7873 6.0934 327° Northwest 451 519 33,400 1,500 Climbing FlightAware ADS-B
Wed 08:08:05 AM 44.8542 6.0316 327° Northwest 442 509 34,600 1,443 Climbing FlightAware ADS-B
Wed 08:08:44 AM 44.9251 5.9678 328° Northwest 443 510 35,300 1,091 Climbing FlightAware ADS-B
Wed 08:09:22 AM 44.9867 5.9119 327° Northwest 441 507 36,000 519 Climbing FlightAware ADS-B
Wed 08:10:05 AM 45.0590 5.8460 327° Northwest 451 519 36,000  Level FlightAware ADS-B
Wed 08:10:42 AM 45.1257 5.7846 327° Northwest 452 520 36,000  Level FlightAware ADS-B
Wed 08:11:53 AM 45.2145 5.7018 327° Northwest 451 519 36,000  Level FlightAware ADS-B
Wed 08:12:54 AM 45.3256 5.5974 327° Northwest 450 518 36,000  Level FlightAware ADS-B
Wed 08:13:48 AM 45.4520 5.4783 326° Northwest 449 517 36,000  Level FlightAware ADS-B
Wed 08:14:34 AM 45.5031 5.4306 333° Northwest 453 521 36,000  Level FlightAware ADS-B
Wed 08:15:09 AM 45.6001 5.3652 337° Northwest 454 522 36,000  Level FlightAware ADS-B
Wed 08:15:53 AM 45.6805 5.3154 336° Northwest 453 521 36,000  Level FlightAware ADS-B
Wed 08:16:26 AM 45.7488 5.2730 337° Northwest 451 519 36,000  Level FlightAware ADS-B
Wed 08:17:07 AM 45.8213 5.2278 336° Northwest 450 518 36,000  Level FlightAware ADS-B
Wed 08:37:17 AM 48.0883 3.6009 332° Northwest 440 506 36,000  Level FlightAware ADS-B
Wed 08:40:58 AM 48.4843 3.2825 332° Northwest 442 509 36,000  Level FlightAware ADS-B
Wed 08:41:00 AM 48.2977 3.3702 324° Northwest  Level Estimated
Wed 08:41:58 AM 48.5826 3.2025 332° Northwest 439 505 36,000  Level FlightAware ADS-B
Wed 08:42:58 AM 48.6985 3.1078 332° Northwest 437 503 36,000  Level FlightAware ADS-B
Wed 08:44:11 AM 48.7946 3.0291 331° Northwest 435 501 36,000 -51 Level FlightAware ADS-B
Wed 08:44:55 AM 48.8990 2.9462 331° Northwest 569 655 35,900  Descending FlightAware UK
Wed 08:45:14 AM 48.9413 2.9077 331° Northwest 435 501 36,000 88 Climbing FlightAware ADS-B
Wed 08:46:03 AM 49.0267 2.8369 331° Northwest 434 499 36,000  Level FlightAware ADS-B
Wed 08:47:04 AM 49.1315 2.7498 331° Northwest 436 502 36,000 -94 Level FlightAware ADS-B
Wed 08:47:07 AM 49.1312 2.7546 331° Northwest 598 688 35,900  Descending FlightAware UK
Wed 08:47:34 AM 49.1785 2.7105 331° Northwest 437 503 36,000 67 Climbing FlightAware ADS-B (EGLL / LHR)
Wed 08:48:37 AM 49.2892 2.6133 331° Northwest 447 514 36,000  Level FlightAware UK
Wed 08:49:08 AM 49.3538 2.5631 331° Northwest 429 494 36,000  Level FlightAware ADS-B
Wed 08:49:13 AM 49.3533 2.5623 333° Northwest 434 499 36,000  Level FlightAware UK
Wed 08:49:41 AM 49.3904 2.5321 331° Northwest 434 499 36,000  Level FlightAware ADS-B (EGLL / LHR)
Wed 08:50:13 AM 49.4586 2.4743 331° Northwest 434 499 36,000  Level FlightAware ADS-B (EGLL / LHR)
Wed 08:50:50 AM 49.4586 2.4743 331° Northwest 433 498 36,000  Level FlightAware ADS-B (EGLL / LHR)
Wed 08:51:37 AM 49.6055 2.3486 331° Northwest 430 495 36,000  Level FlightAware UK
Wed 08:52:31 AM 49.6991 2.2687 331° Northwest 428 493 36,000 -56 Level FlightAware UK
Wed 08:53:24 AM 49.7918 2.1887 331° Northwest 428 493 35,900 -71 Descending FlightAware UK
Wed 08:53:55 AM 49.8438 2.1440 331° Northwest 426 490 35,900  Level FlightAware UK
Wed 08:54:30 AM 49.9055 2.0912 331° Northwest 426 490 35,900 65 Level FlightAware UK
Wed 08:55:27 AM 49.9832 2.0233 331° Northwest 428 493 36,000 66 Climbing FlightAware ADS-B (EGLC / LCY)
Wed 08:56:01 AM 50.0347 1.9761 320° Northwest 432 497 36,000  Level FlightAware ADS-B (EGLC / LCY)
Wed 08:56:13 AM 50.0752 1.9248 316° Northwest 427 491 36,000  Level FlightAware ADS-B (KSCH)
Wed 08:56:28 AM 50.0955 1.8953 317° Northwest 432 497 36,000  Level FlightAware ADS-B (EGLC / LCY)
Wed 08:56:35 AM 50.1074 1.8780 316° Northwest 427 491 36,000  Level FlightAware ADS-B
Wed 08:57:15 AM 50.1678 1.7903 316° Northwest 424 488 36,000  Level FlightAware ADS-B (EGLC / LCY)
Wed 08:57:48 AM 50.2045 1.7365 317° Northwest 428 493 36,000 -957 Level FlightAware ADS-B (EGLC / LCY)
Wed 08:58:24 AM 50.2666 1.6456 317° Northwest 424 488 34,900 -2,143 Descending FlightAware UK
Wed 08:58:30 AM 50.2606 1.6546 317° Northwest 425 489 34,500 -2,444 Descending FlightAware ADS-B
Wed 08:59:18 AM 50.2303 1.6991 317° Northwest 424 488 32,700 -2,155 Descending FlightAware ADS-B (EGLC / LCY)
Wed 09:00:13 AM 50.4122 1.4307 317° Northwest 410 472 30,800 -2,023 Descending FlightAware ADS-B (EGLC / LCY)
Wed 09:00:44 AM 50.4613 1.3580 317° Northwest 405 466 29,800 -2,239 Descending FlightAware ADS-B (EGLC / LCY)
Wed 09:01:20 AM 50.4805 1.3293 316° Northwest 398 458 28,300 -750 Descending FlightAware ADS-B (EGLF / FAB)
Wed 09:01:24 AM 50.4818 1.3272 316° Northwest 400 460 29,300 -1,731 Climbing FlightAware ADS-B (EGKK / LGW)
Wed 09:02:12 AM 50.5789 1.1825 316° Northwest 390 449 26,800 -2,951 Descending FlightAware UK
Wed 09:02:25 AM 50.5779 1.1838 316° Northwest 388 447 26,300 -2,045 Descending FlightAware ADS-B (EGLF / FAB)
Wed 09:02:56 AM 50.6338 1.0999 316° Northwest 382 440 25,300 -1,955 Descending FlightAware ADS-B (EGLF / FAB)
Wed 09:03:54 AM 50.7084 0.9878 316° Northwest 370 426 23,400 -2,024 Descending FlightAware UK
Wed 09:04:19 AM 50.7363 0.9453 316° Northwest 373 429 22,500 -2,069 Descending FlightAware ADS-B (EGLC / LCY)
Wed 09:04:52 AM 50.7798 0.8795 316° Northwest 367 422 21,400 -2,038 Descending FlightAware ADS-B (EGLL / LHR)
Wed 09:05:12 AM 50.8026 0.8449 316° Northwest 364 419 20,700 -1,750 Descending FlightAware ADS-B (EGLF / FAB)
Wed 09:05:16 AM 50.8074 0.8374 315° West 360 414 20,700 -1,909 Level FlightAware ADS-B (EGHH / BOH)
Wed 09:05:56 AM 50.8556 0.7640 316° Northwest 360 414 19,300 -2,219 Descending FlightAware ADS-B (EGLF / FAB)
Wed 09:06:29 AM 50.8956 0.7033 316° Northwest 357 411 18,000 -1,967 Descending FlightAware ADS-B (EGLC / LCY)
Wed 09:06:57 AM 50.9285 0.6528 315° West 348 400 17,300 -1,660 Descending FlightAware ADS-B
Wed 09:07:16 AM 50.9514 0.6177 315° West 345 397 16,700 -1,882 Descending FlightAware ADS-B
Wed 09:07:48 AM 50.9879 0.5618 316° Northwest 347 399 15,700 -1,739 Descending FlightAware ADS-B
Wed 09:08:25 AM 51.0294 0.4980 316° Northwest 339 390 14,700 -1,378 Descending FlightAware ADS-B (EGLF / FAB)
Wed 09:09:02 AM 51.0711 0.4337 316° Northwest 342 394 14,000 -1,114 Descending FlightAware ADS-B (EGLC / LCY)
Wed 09:09:35 AM 51.1078 0.3766 316° Northwest 339 390 13,400 -1,116 Descending FlightAware ADS-B (EGLF / FAB)
Wed 09:09:45 AM 51.1196 0.3585 316° Northwest 334 384 13,200 -600 Descending FlightAware ADS-B (EGLF / FAB)
Wed 09:10:15 AM 51.1527 0.3075 316° Northwest 310 357 13,000 -474 Descending FlightAware ADS-B
Wed 09:10:23 AM 51.1598 0.2962 315° West 297 342 12,900 -632 Descending FlightAware ADS-B
Wed 09:10:53 AM 51.1894 0.2504 316° Northwest 285 328 12,600 -484 Descending FlightAware ADS-B (EGLL / LHR)
Wed 09:11:25 AM 51.2190 0.2051 317° Northwest 265 305 12,400 -439 Descending FlightAware ADS-B
Wed 09:11:34 AM 51.2266 0.1939 317° Northwest 267 307 12,300 -818 Descending FlightAware ADS-B (KSCH)
Wed 09:11:47 AM 51.2380 0.1765 315° West 255 293 12,100 -200 Descending FlightAware ADS-B
Wed 09:12:04 AM 51.2320 0.1855 315° West 256 295 12,200 -1,200 Climbing FlightAware ADS-B (EGKK / LGW)
Wed 09:12:37 AM 51.2806 0.1118 316° Northwest 260 299 11,100 -1,619 Descending FlightAware ADS-B (EGLL / LHR)
Wed 09:13:07 AM 51.3055 0.0737 316° Northwest 260 299 10,500 -1,067 Descending FlightAware ADS-B (EGLF / FAB)
Wed 09:13:22 AM 51.3204 0.0509 315° West 252 290 10,300 -968 Descending FlightAware ADS-B (KSCH)
Wed 09:13:38 AM 51.3337 0.0307 319° Northwest 257 296 10,000 -1,200 Descending FlightAware ADS-B (EGLC / LCY)
Wed 09:13:47 AM 51.3433 0.0210 334° Northwest 254 292 9,800 -1,000 Descending FlightAware ADS-B (EGLF / FAB)
Wed 09:14:02 AM 51.3593 0.0157 315° West 252 290 9,600 -1,000 Descending FlightAware ADS-B
Wed 09:14:05 AM 51.3584 0.0157 North 248 285 9,500 -667 Descending FlightAware ADS-B (EGLF / FAB)
Wed 09:14:11 AM 51.3694 0.0187 17° North 238 274 9,500 -500 Level FlightAware ADS-B
Wed 09:14:17 AM 51.3759 0.0237 30° Northeast 243 280 9,400 -1,200 Descending FlightAware ADS-B
Wed 09:14:26 AM 51.3834 0.0338 47° Northeast 239 275 9,200 -1,385 Descending FlightAware ADS-B
Wed 09:14:30 AM 51.3861 0.0398 54° Northeast 237 273 9,100 -1,091 Descending FlightAware ADS-B (EGLL / LHR)
Wed 09:14:37 AM 51.3880 0.0449 64° Northeast 235 270 9,000 -923 Descending FlightAware ADS-B
Wed 09:14:43 AM 51.3913 0.0602 80° East 234 269 8,900 -1,000 Descending FlightAware ADS-B (EGLL / LHR)
Wed 09:14:49 AM 51.3917 0.0702 91° East 233 268 8,800 -857 Descending FlightAware ADS-B (EGLF / FAB)
Wed 09:14:57 AM 51.3913 0.0779 103° East 232 267 8,700 -947 Descending FlightAware ADS-B
Wed 09:15:08 AM 51.3858 0.1009 121° Southeast 232 267 8,500 -800 Descending FlightAware ADS-B (EGLF / FAB)
Wed 09:15:27 AM 51.3753 0.1276 122° Southeast 232 267 8,300 -857 Descending FlightAware ADS-B (EGLF / FAB)
Wed 09:15:36 AM 51.3702 0.1408 122° Southeast 231 266 8,100 -1,250 Descending FlightAware ADS-B (EGLF / FAB)
Wed 09:15:51 AM 51.3614 0.1640 120° Southeast 226 260 7,800 -1,000 Descending FlightAware ADS-B
Wed 09:15:54 AM 51.3599 0.1678 122° Southeast 230 265 7,800 -600 Level FlightAware ADS-B (EGLF / FAB)
Wed 09:16:11 AM 51.3510 0.1901 126° Southeast 227 261 7,600 -857 Descending FlightAware ADS-B (EGLC / LCY)
Wed 09:16:15 AM 51.3474 0.1974 133° Southeast 228 262 7,500 -706 Descending FlightAware ADS-B (EGLC / LCY)
Wed 09:16:28 AM 51.3386 0.2087 154° Southeast 231 266 7,400 -571 Descending FlightAware ADS-B (EGLF / FAB)
Wed 09:16:36 AM 51.3287 0.2145 167° South 234 269 7,300 -1,125 Descending FlightAware ADS-B (EGLF / FAB)
Wed 09:16:44 AM 51.3212 0.2156 190° South 237 273 7,100 -857 Descending FlightAware ADS-B (EGLF / FAB)
Wed 09:16:57 AM 51.3071 0.2101 195° South 238 274 7,000 -273 Descending FlightAware ADS-B (EGLF / FAB)
Wed 09:17:06 AM 51.2985 0.2000 218° Southwest 242 278 7,000  Level FlightAware ADS-B (EGLF / FAB)
Wed 09:17:16 AM 51.2939 0.1914 239° Southwest 247 284 7,000  Level FlightAware ADS-B (EGLF / FAB)
Wed 09:17:23 AM 51.2909 0.1825 235° Southwest 247 284 7,000  Level FlightAware ADS-B
Wed 09:17:27 AM 51.2939 0.1914 260° West 252 290 7,000  Level FlightAware ADS-B (EGLF / FAB)
Wed 09:17:36 AM 51.2888 0.1505 279° West 251 289 7,000  Level FlightAware ADS-B (EGLF / FAB)
Wed 09:17:44 AM 51.2925 0.1347 295° West 251 289 7,000  Level FlightAware ADS-B (EGLL / LHR)
Wed 09:18:00 AM 51.3018 0.1107 303° West 249 287 7,000  Level FlightAware ADS-B (EGKK / LGW)
Wed 09:18:16 AM 51.3102 0.0894 302° West 249 287 7,000  Level FlightAware ADS-B (EGLF / FAB)
Wed 09:18:24 AM 51.3166 0.0728 301° West 250 288 7,000  Level FlightAware ADS-B
Wed 09:18:45 AM 51.3297 0.0385 303° West 250 288 7,000  Level FlightAware ADS-B
Wed 09:18:56 AM 51.3360 0.0249 306° West 249 287 7,000  Level FlightAware ADS-B (EGLF / FAB)
Wed 09:19:01 AM 51.3402 0.0149 302° West 251 289 7,000  Level FlightAware ADS-B (EGLC / LCY)
Wed 09:19:06 AM 51.3432 0.0069 299° West 251 289 7,000  Level FlightAware ADS-B (EGLC / LCY)
Wed 09:19:22 AM 51.3504 -0.0160 297° West 250 288 7,000  Level FlightAware ADS-B (EGKK / LGW)
Wed 09:19:41 AM 51.3612 -0.0506 296° West 250 288 7,000  Level FlightAware ADS-B (EGLC / LCY)
Wed 09:19:47 AM 51.3607 -0.0491 297° West 251 289 7,000  Level FlightAware ADS-B (EGHP)
Wed 09:20:05 AM 51.3733 -0.0892 297° West 250 288 7,000  Level FlightAware ADS-B
Wed 09:20:20 AM 51.3812 -0.1145 297° West 251 289 7,000  Level FlightAware ADS-B
Wed 09:20:35 AM 51.3890 -0.1392 297° West 250 288 7,000  Level FlightAware ADS-B (EGLL / LHR)
Wed 09:20:56 AM 51.3995 -0.1727 297° West 253 291 7,000  Level FlightAware ADS-B (EGLC / LCY)
Wed 09:21:19 AM 51.4126 -0.2127 297° West 251 289 7,000  Level FlightAware ADS-B (EGLL / LHR)
Wed 09:21:29 AM 51.4166 -0.2301 286° West 252 290 7,000  Level FlightAware ADS-B (EGLC / LCY)
Wed 09:21:35 AM 51.4173 -0.2418 271° West 253 291 7,000  Level FlightAware ADS-B
Wed 09:21:45 AM 51.4154 -0.2592 255° West 253 291 7,000  Level FlightAware ADS-B
Wed 09:21:55 AM 51.4107 -0.2760 243° Southwest 248 285 7,000  Level FlightAware ADS-B
Wed 09:22:10 AM 51.4043 -0.2953 240° Southwest 249 287 7,000  Level FlightAware ADS-B (EGLL / LHR)
Wed 09:22:16 AM 51.3994 -0.3082 240° Southwest 247 284 7,000  Level FlightAware ADS-B
Wed 09:22:25 AM 51.3936 -0.3249 242° Southwest 243 280 7,000  Level FlightAware ADS-B
Wed 09:22:32 AM 51.3904 -0.3339 241° Southwest 247 284 7,000  Level FlightAware ADS-B (EGLF / FAB)
Wed 09:22:52 AM 51.3787 -0.3667 242° Southwest 244 281 7,000  Level FlightAware ADS-B
Wed 09:22:57 AM 51.3758 -0.3752 242° Southwest 243 280 7,000  Level FlightAware ADS-B
Wed 09:23:04 AM 51.3719 -0.3861 243° Southwest 242 278 7,000  Level FlightAware ADS-B
Wed 09:23:21 AM 51.3628 -0.4119 243° Southwest 243 280 7,000  Level FlightAware ADS-B (EGKK / LGW)
Wed 09:23:37 AM 51.3532 -0.4393 242° Southwest 243 280 7,000  Level FlightAware ADS-B
Wed 09:23:47 AM 51.3500 -0.4490 241° Southwest 246 283 7,000  Level FlightAware ADS-B
Wed 09:23:58 AM 51.3417 -0.4720 242° Southwest 246 283 7,000  Level FlightAware ADS-B
Wed 09:24:15 AM 51.3327 -0.4982 241° Southwest 248 285 7,000  Level FlightAware ADS-B (EGLF / FAB)
Wed 09:24:30 AM 51.3249 -0.5212 243° Southwest 248 285 7,000  Level FlightAware ADS-B (EGLF / FAB)
Wed 09:24:36 AM 51.3222 -0.5304 252° West 250 288 7,000  Level FlightAware ADS-B (EGLF / FAB)
Wed 09:24:39 AM 51.3206 -0.5399 262° West 250 288 7,000  Level FlightAware ADS-B
Wed 09:24:47 AM 51.3204 -0.5496 273° West 254 292 7,000  Level FlightAware ADS-B
Wed 09:24:56 AM 51.3225 -0.5710 285° West 255 293 7,000  Level FlightAware ADS-B
Wed 09:24:59 AM 51.3237 -0.5762 285° West 253 291 7,000  Level FlightAware ADS-B
Wed 09:25:16 AM 51.3297 -0.6054 289° West 253 291 7,000  Level FlightAware ADS-B (EGHI / SOU)
Wed 09:25:37 AM 51.3369 -0.6399 288° West 254 292 7,000  Level FlightAware ADS-B (EGLC / LCY)
Wed 09:25:54 AM 51.3432 -0.6693 288° West 254 292 7,000  Level FlightAware ADS-B (EGLC / LCY)
Wed 09:26:06 AM 51.3473 -0.6892 289° West 249 287 7,000  Level FlightAware ADS-B (EGLF / FAB)
Wed 09:26:09 AM 51.3495 -0.6998 288° West 247 284 7,000  Level FlightAware ADS-B (EGLF / FAB)
Wed 09:26:25 AM 51.3548 -0.7264 287° West 227 261 7,000  Level FlightAware ADS-B
Wed 09:26:30 AM 51.3565 -0.7347 287° West 222 255 7,000  Level FlightAware ADS-B
Wed 09:26:38 AM 51.3588 -0.7458 288° West 225 259 7,000 -750 Level FlightAware ADS-B (EGLC / LCY)
Wed 09:26:46 AM 51.3617 -0.7596 289° West 224 258 6,800 -1,043 Descending FlightAware ADS-B
Wed 09:27:01 AM 51.3661 -0.7816 288° West 223 257 6,600 -800 Descending FlightAware ADS-B (EGLL / LHR)
Wed 09:27:16 AM 51.3680 -0.7901 288° West 222 255 6,400 -774 Descending FlightAware ADS-B (EGLL / LHR)
Wed 09:27:32 AM 51.3762 -0.8308 287° West 215 247 6,200 -581 Descending FlightAware ADS-B (EGHH / BOH)
Wed 09:27:47 AM 51.3806 -0.8540 287° West 216 249 6,100 -200 Descending FlightAware ADS-B
Wed 09:28:02 AM 51.3850 -0.8750 288° West 217 250 6,100 -200 Level FlightAware ADS-B (EGHH / BOH)
Wed 09:28:17 AM 51.3871 -0.8865 287° West 218 251 6,000 -522 Descending FlightAware ADS-B (EGLF / FAB)
Wed 09:28:25 AM 51.3922 -0.9122 288° West 216 249 5,900 -261 Descending FlightAware ADS-B
Wed 09:28:40 AM 51.3963 -0.9340 287° West 217 250 5,900  Level FlightAware ADS-B (KSCH)
Wed 09:28:49 AM 51.3989 -0.9482 284° West 217 250 5,900  Level FlightAware ADS-B (EGKK / LGW)
Wed 09:28:55 AM 51.4008 -0.9582 285° West 216 249 5,900  Level FlightAware ADS-B
Wed 09:29:10 AM 51.4053 -0.9789 292° West 214 246 5,900  Level FlightAware ADS-B (EGKK / LGW)
Wed 09:29:17 AM 51.4101 -0.9903 312° West 215 247 5,900 -600 Level FlightAware ADS-B (EGLL / LHR)
Wed 09:29:30 AM 51.4199 -1.0010 332° Northwest 206 237 5,700 -706 Descending FlightAware ADS-B (EGKK / LGW)
Wed 09:29:34 AM 51.4234 -1.0029 347° North 206 237 5,700  Level FlightAware ADS-B (EGLF / FAB)
Wed 09:29:37 AM 51.4262 -1.0041 348° North 197 227 5,700 -750 Level FlightAware ADS-B
Wed 09:29:42 AM 51.4311 -1.0055 350° North 196 226 5,600 -632 Descending FlightAware ADS-B (KSCH)
Wed 09:29:56 AM 51.4446 -1.0084 351° North 203 234 5,500 -750 Descending FlightAware ADS-B
Wed 09:30:06 AM 51.4509 -1.0091 North 197 227 5,300 -900 Descending FlightAware ADS-B (EGLF / FAB)
Wed 09:30:16 AM 51.4610 -1.0030 33° Northeast 185 213 5,200 -923 Descending FlightAware ADS-B (EGLF / FAB)
Wed 09:30:19 AM 51.4628 -0.9997 50° Northeast 179 206 5,100 -1,091 Descending FlightAware ADS-B
Wed 09:30:27 AM 51.4651 -0.9931 66° East 176 203 5,000 -1,000 Descending FlightAware ADS-B (EGLF / FAB)
Wed 09:30:31 AM 51.4669 -0.9861 66° East 176 203 4,900 -667 Descending FlightAware ADS-B (EGLF / FAB)
Wed 09:30:45 AM 51.4709 -0.9700 72° East 176 203 4,800 -316 Descending FlightAware ADS-B (EGLL / LHR)
Wed 09:30:50 AM 51.4707 -0.9710 70° East 175 201 4,800 -667 Level FlightAware ADS-B (EGLF / FAB)
Wed 09:30:54 AM 51.4730 -0.9571 78° East 178 205 4,700 -667 Descending FlightAware ADS-B
Wed 09:31:08 AM 51.4744 -0.9397 88° East 175 201 4,600 -316 Descending FlightAware ADS-B
Wed 09:31:13 AM 51.4746 -0.9325 89° East 175 201 4,600 -300 Level FlightAware ADS-B (KSCH)
Wed 09:31:28 AM 51.4752 -0.9138 89° East 174 200 4,500 -514 Descending FlightAware ADS-B
Wed 09:31:48 AM 51.4753 -0.8871 89° East 174 200 4,300 -462 Descending FlightAware ADS-B
Wed 09:32:07 AM 51.4755 -0.8659 89° East 173 199 4,200 -286 Descending FlightAware ADS-B (EGLF / FAB)
Wed 09:32:30 AM 51.4757 -0.8355 90° East 171 197 4,100 -450 Descending FlightAware ADS-B
Wed 09:32:47 AM 51.4758 -0.8152 90° East 172 198 3,900 -600 Descending FlightAware ADS-B (EGLF / FAB)
Wed 09:32:50 AM 51.4758 -0.8101 89° East 173 199 3,900 -545 Level FlightAware ADS-B
Wed 09:32:58 AM 51.4758 -0.7998 89° East 177 204 3,800 -960 Descending FlightAware ADS-B (KSCH)
Wed 09:33:15 AM 51.4761 -0.7759 89° East 180 207 3,500 -1,091 Descending FlightAware ADS-B
Wed 09:33:31 AM 51.4762 -0.7558 89° East 179 206 3,200 -1,125 Descending FlightAware ADS-B (EGLF / FAB)
Wed 09:33:47 AM 51.4763 -0.7346 89° East 176 203 2,900 -833 Descending FlightAware ADS-B (EGLF / FAB)
Wed 09:34:07 AM 51.4764 -0.7112 90° East 160 184 2,700 -769 Descending FlightAware ADS-B (EGLF / FAB)
Wed 09:34:26 AM 51.4766 -0.6881 89° East 155 178 2,400 -882 Descending FlightAware ADS-B (EGLL / LHR)
Wed 09:34:41 AM 51.4767 -0.6731 90° East 153 176 2,200 -774 Descending FlightAware ADS-B (EGLL / LHR)
Wed 09:34:57 AM 51.4767 -0.6538 90° East 158 182 2,000 -833 Descending FlightAware ADS-B (EGLF / FAB)
Wed 09:35:17 AM 51.4769 -0.6284 89° East 163 188 1,700 -923 Descending FlightAware ADS-B (EGLL / LHR)
Wed 09:35:36 AM 51.4770 -0.6056 90° East 161 185 1,400 -818 Descending FlightAware ADS-B (EGLF / FAB)
Wed 09:35:39 AM 51.4770 -0.6021 90° East 162 186 1,400 -857 Level FlightAware ADS-B
Wed 09:35:57 AM 51.4771 -0.5819 90° East 157 181 1,100 -750 Descending FlightAware ADS-B (EGLF / FAB)
Wed 09:36:27 AM 51.4772 -0.5507 90° East 133 153 800 -735 Descending FlightAware ADS-B (EGLF / FAB)
Wed 09:36:46 AM 51.4773 -0.5331 90° East 132 152 500 -750 Descending FlightAware ADS-B (EGLL / LHR)
Wed 09:37:07 AM 51.4774 -0.5095 90° East 132 152 300 -571 Descending FlightAware ADS-B
Wed 09:37:28 AM 51.4775 -0.4898 90° East 135 155 100 -571 Descending FlightAware ADS-B
Wed 09:40:00 AM 51.4775 -0.4614 90° East  Level Estimated

Login

Don't have an account? Register now (free) for customized features, flight alerts, and more!